Time;durP1;ratioP1;P1;durP2;ratioP2;P2;SDS_P1;SDS_P2;PMS_P1;PMS_P2;Temp;Humidity;BMP_temperature;BMP_pressure;BME280_temperature;BME280_humidity;BME280_pressure;Samples;Min_cycle;Max_cycle;Signal;HPM_P1;HPM_P2
2022/01/21 00:09:12;;;;;;;1.08;0.25;;;1.30;99.90;;;;;;20556440;28;20039;-43
2022/01/21 00:19:15;;;;;;;0.68;0.30;;;1.20;99.90;;;;;;20543758;28;20050;-43
2022/01/21 00:39:37;;;;;;;1.60;0.30;;;1.20;99.90;;;;;;20552524;28;20066;-43
2022/01/21 00:49:38;;;;;;;0.98;0.15;;;1.10;99.90;;;;;;20568723;28;20129;-43
2022/01/21 00:59:39;;;;;;;1.25;0.40;;;1.00;99.90;;;;;;20562411;28;20085;-43
2022/01/21 01:09:42;;;;;;;0.77;0.20;;;1.10;99.90;;;;;;20557570;28;20039;-43
2022/01/21 01:20:00;;;;;;;1.48;0.20;;;1.10;99.90;;;;;;20564982;28;20300;-43
2022/01/21 01:30:02;;;;;;;2.05;0.40;;;1.10;99.90;;;;;;20558354;28;20039;-43
2022/01/21 01:50:17;;;;;;;1.30;0.55;;;1.10;99.90;;;;;;20562301;28;20314;-43
2022/01/21 02:00:18;;;;;;;5.87;0.20;;;1.30;99.90;;;;;;20559327;28;20102;-44
2022/01/21 02:10:20;;;;;;;1.23;0.22;;;1.40;99.90;;;;;;20553638;28;20300;-44
2022/01/21 02:30:52;;;;;;;0.52;0.10;;;1.60;99.90;;;;;;20552232;28;20065;-43
2022/01/21 02:40:53;;;;;;;0.45;0.40;;;1.60;99.90;;;;;;20555184;28;20034;-44
2022/01/21 02:50:54;;;;;;;1.75;0.30;;;1.60;99.90;;;;;;20545170;28;20057;-44
2022/01/21 03:00:55;;;;;;;0.70;0.17;;;1.60;99.90;;;;;;20547541;28;20101;-43
2022/01/21 03:10:57;;;;;;;1.03;0.50;;;1.50;99.90;;;;;;20554326;28;20039;-44
2022/01/21 03:20:57;;;;;;;8.88;0.45;;;1.40;99.90;;;;;;20557650;28;20803;-43
2022/01/21 03:30:58;;;;;;;0.20;0.00;;;1.30;99.90;;;;;;20548350;28;20617;-44
2022/01/21 03:40:59;;;;;;;0.43;0.15;;;1.20;99.90;;;;;;20547098;28;20035;-43
2022/01/21 03:51:00;;;;;;;0.10;0.00;;;1.20;99.90;;;;;;20547920;28;20042;-43
2022/01/21 04:01:01;;;;;;;3.15;0.40;;;1.20;99.90;;;;;;20546252;28;20066;-44
2022/01/21 04:11:02;;;;;;;0.08;0.00;;;1.30;99.90;;;;;;20558564;28;20082;-43
2022/01/21 04:21:03;;;;;;;0.20;0.00;;;1.20;99.90;;;;;;20567896;28;20069;-43
2022/01/21 04:31:04;;;;;;;0.63;0.20;;;1.20;99.90;;;;;;20561585;28;20261;-43
2022/01/21 04:51:17;;;;;;;1.90;0.55;;;1.00;99.90;;;;;;20561073;28;20102;-43
2022/01/21 05:01:17;;;;;;;0.15;0.10;;;1.00;99.90;;;;;;20564739;28;20038;-43
2022/01/21 05:11:18;;;;;;;3.40;0.50;;;1.00;99.90;;;;;;20563949;28;20039;-44
2022/01/21 05:21:19;;;;;;;0.98;0.28;;;1.10;99.90;;;;;;20552331;28;20310;-43
2022/01/21 05:31:19;;;;;;;0.70;0.25;;;1.30;99.90;;;;;;20565054;28;20081;-43
2022/01/21 05:41:23;;;;;;;9.20;0.75;;;1.20;99.90;;;;;;20563483;28;20062;-43
2022/01/21 05:51:24;;;;;;;1.85;0.43;;;1.30;99.90;;;;;;20556284;28;20049;-43
2022/01/21 06:01:24;;;;;;;1.40;0.32;;;1.40;99.90;;;;;;20554631;28;20066;-43
2022/01/21 06:11:26;;;;;;;1.52;0.60;;;1.40;99.90;;;;;;20567938;28;20245;-43
2022/01/21 06:21:26;;;;;;;0.60;0.20;;;1.30;99.90;;;;;;20557088;28;20227;-44
2022/01/21 06:31:27;;;;;;;2.83;0.52;;;1.20;99.90;;;;;;20557898;28;20314;-43
2022/01/21 06:41:28;;;;;;;0.50;0.20;;;1.10;99.90;;;;;;20551034;28;20470;-43
2022/01/21 06:51:28;;;;;;;1.97;0.27;;;1.20;99.90;;;;;;20558722;28;20333;-44
2022/01/21 07:01:29;;;;;;;1.10;0.28;;;1.40;99.90;;;;;;20556310;28;20392;-43
2022/01/21 07:11:30;;;;;;;0.82;0.30;;;1.40;99.90;;;;;;20557089;28;20057;-43
2022/01/21 07:21:34;;;;;;;1.85;0.20;;;1.40;99.90;;;;;;20551817;28;20829;-44
2022/01/21 07:31:35;;;;;;;4.68;0.20;;;1.30;99.90;;;;;;20563831;28;20050;-44
2022/01/21 07:41:35;;;;;;;1.25;0.28;;;1.30;99.90;;;;;;20564761;28;20149;-44
2022/01/21 07:51:38;;;;;;;1.10;0.30;;;1.10;99.90;;;;;;20568695;28;20054;-44
2022/01/21 08:01:39;;;;;;;0.98;0.30;;;1.10;99.90;;;;;;20562567;28;20081;-43
2022/01/21 08:11:40;;;;;;;1.33;0.28;;;1.10;99.90;;;;;;20578233;28;20526;-44
2022/01/21 08:21:41;;;;;;;1.65;0.40;;;1.10;99.90;;;;;;20570496;28;20562;-43
2022/01/21 08:31:43;;;;;;;1.05;0.52;;;1.20;99.90;;;;;;20564830;28;20053;-44
2022/01/21 08:41:43;;;;;;;0.60;0.30;;;1.30;99.90;;;;;;20557467;28;20525;-44
2022/01/21 08:51:53;;;;;;;7.03;0.87;;;1.70;99.90;;;;;;20557589;28;20475;-44
2022/01/21 09:01:54;;;;;;;4.18;0.43;;;2.10;99.90;;;;;;20577331;28;20297;-44
2022/01/21 09:12:00;;;;;;;1.60;0.35;;;2.50;99.90;;;;;;20567917;28;20054;-44
2022/01/21 09:22:02;;;;;;;1.80;1.33;;;2.80;99.90;;;;;;20565114;28;20292;-44
2022/01/21 09:32:05;;;;;;;3.22;0.80;;;3.10;99.90;;;;;;20569344;28;20042;-44
2022/01/21 09:42:10;;;;;;;3.80;0.63;;;3.80;99.90;;;;;;20560046;28;20714;-44
2022/01/21 09:52:17;;;;;;;4.88;1.15;;;4.20;99.90;;;;;;20533989;28;20426;-43
2022/01/21 10:02:20;;;;;;;3.40;0.73;;;4.40;99.90;;;;;;20558773;28;20050;-45
2022/01/21 10:12:25;;;;;;;6.38;0.68;;;4.50;99.90;;;;;;20561380;28;20137;-44
2022/01/21 10:22:26;;;;;;;1.80;0.68;;;4.60;99.90;;;;;;20560325;28;20099;-43
2022/01/21 10:32:41;;;;;;;1.88;0.70;;;4.90;99.90;;;;;;20548860;28;20317;-43
2022/01/21 10:42:43;;;;;;;2.70;0.70;;;5.40;99.90;;;;;;20561081;28;20544;-44
2022/01/21 10:52:46;;;;;;;1.35;0.17;;;5.80;99.90;;;;;;20567271;28;20049;-43
2022/01/21 11:02:49;;;;;;;5.40;0.45;;;5.90;99.90;;;;;;20559896;28;20199;-44
2022/01/21 11:12:51;;;;;;;4.88;0.68;;;6.20;99.90;;;;;;20559213;28;20043;-43
2022/01/21 11:22:56;;;;;;;3.05;0.40;;;6.30;99.90;;;;;;20554217;28;20050;-44
2022/01/21 11:32:57;;;;;;;1.95;0.17;;;6.40;99.90;;;;;;20573520;28;20053;-44
2022/01/21 11:42:58;;;;;;;1.67;0.60;;;6.50;99.90;;;;;;20554469;28;20043;-44
2022/01/21 11:52:59;;;;;;;3.33;0.30;;;6.70;99.90;;;;;;20545444;28;20392;-44
2022/01/21 12:02:59;;;;;;;7.80;2.10;;;6.80;99.90;;;;;;20563066;28;20100;-44
2022/01/21 12:13:08;;;;;;;1.03;0.40;;;7.30;99.90;;;;;;20559062;28;20329;-44
2022/01/21 12:23:12;;;;;;;2.67;0.47;;;7.20;99.90;;;;;;20559407;28;20298;-44
2022/01/21 12:33:12;;;;;;;1.10;0.32;;;7.00;99.90;;;;;;20559659;28;20461;-44
2022/01/21 12:43:36;;;;;;;3.58;0.70;;;6.70;99.90;;;;;;20545952;28;20144;-44
2022/01/21 12:53:54;;;;;;;3.47;0.63;;;6.70;99.90;;;;;;20569231;28;20046;-44
2022/01/21 13:04:05;;;;;;;2.65;0.60;;;6.80;99.90;;;;;;20582108;28;20518;-44
2022/01/21 13:24:32;;;;;;;3.47;1.00;;;6.70;99.90;;;;;;20571943;28;20610;-44
2022/01/21 13:34:36;;;;;;;2.17;0.30;;;6.70;99.90;;;;;;20573571;28;20062;-44
2022/01/21 13:44:43;;;;;;;3.22;0.80;;;6.70;99.90;;;;;;20569682;28;20046;-44
2022/01/21 13:54:49;;;;;;;0.47;0.20;;;6.70;99.90;;;;;;20572919;28;20284;-44
2022/01/21 14:04:57;;;;;;;2.22;0.28;;;6.80;99.90;;;;;;20573165;28;20494;-44
2022/01/21 14:14:58;;;;;;;6.03;0.40;;;6.60;99.90;;;;;;20572296;28;21748;-44
2022/01/21 14:24:59;;;;;;;3.78;0.60;;;6.40;99.90;;;;;;20573384;28;20045;-44
2022/01/21 14:35:07;;;;;;;1.83;0.53;;;6.30;99.90;;;;;;20561833;28;20050;-44
2022/01/21 14:45:19;;;;;;;6.13;1.98;;;6.20;99.90;;;;;;20576103;28;20317;-44
2022/01/21 14:55:26;;;;;;;5.55;1.52;;;6.20;99.90;;;;;;20569041;28;20050;-44
2022/01/21 15:05:28;;;;;;;3.10;0.40;;;6.20;99.90;;;;;;20571029;28;20042;-44
2022/01/21 15:15:53;;;;;;;2.40;0.73;;;6.30;99.90;;;;;;20565104;28;20305;-44
2022/01/21 15:25:55;;;;;;;2.50;1.27;;;6.30;99.90;;;;;;20562023;28;20505;-44
2022/01/21 15:35:55;;;;;;;1.73;0.50;;;6.30;99.90;;;;;;20573186;28;20449;-44
2022/01/21 15:45:56;;;;;;;2.10;0.40;;;6.40;99.90;;;;;;20567426;28;20043;-44
2022/01/21 15:55:57;;;;;;;1.48;0.30;;;6.40;99.90;;;;;;20563641;28;20054;-44
2022/01/21 16:06:03;;;;;;;1.65;0.82;;;6.30;99.90;;;;;;20566188;28;20034;-44
2022/01/21 16:16:05;;;;;;;0.85;0.28;;;6.30;99.90;;;;;;20590039;28;20041;-44
2022/01/21 16:26:07;;;;;;;1.25;0.40;;;6.30;99.90;;;;;;20581860;28;20034;-44
2022/01/21 16:36:08;;;;;;;2.10;0.80;;;6.20;99.90;;;;;;20591139;28;20077;-44
2022/01/21 16:46:10;;;;;;;7.95;0.80;;;6.30;99.90;;;;;;20581177;28;20538;-44
2022/01/21 16:56:11;;;;;;;4.57;1.13;;;6.20;99.90;;;;;;20593094;28;20100;-44
2022/01/21 17:06:11;;;;;;;2.45;0.85;;;6.10;99.90;;;;;;20608167;28;20042;-44
2022/01/21 17:16:12;;;;;;;7.65;0.50;;;6.20;99.90;;;;;;20581964;28;20056;-44
2022/01/21 17:26:13;;;;;;;2.30;0.37;;;6.10;99.90;;;;;;20544925;28;20306;-44
2022/01/21 17:36:13;;;;;;;4.55;0.60;;;6.20;99.90;;;;;;20566623;28;20326;-44
2022/01/21 17:46:14;;;;;;;4.90;1.70;;;6.10;99.90;;;;;;20554438;28;20418;-44
2022/01/21 17:56:15;;;;;;;8.85;1.42;;;6.10;99.90;;;;;;20569774;28;20054;-44
2022/01/21 18:06:16;;;;;;;1.45;0.88;;;6.00;99.90;;;;;;20577134;28;20045;-44
2022/01/21 18:16:17;;;;;;;3.85;0.85;;;6.10;99.90;;;;;;20576136;28;20091;-44
2022/01/21 18:26:19;;;;;;;5.38;1.00;;;6.10;99.90;;;;;;20564857;28;20130;-44
2022/01/21 18:36:19;;;;;;;4.07;2.03;;;6.10;99.90;;;;;;20564761;28;20499;-44
2022/01/21 18:46:25;;;;;;;9.27;0.80;;;6.10;99.90;;;;;;20562911;28;20627;-44
2022/01/21 18:56:26;;;;;;;4.68;1.10;;;6.10;99.90;;;;;;20561370;28;20512;-44
2022/01/21 19:06:37;;;;;;;8.77;1.35;;;6.20;99.90;;;;;;20598150;28;20042;-46
2022/01/21 19:16:38;;;;;;;3.38;0.82;;;6.10;99.90;;;;;;20628654;28;20045;-44
2022/01/21 19:36:50;;;;;;;3.05;1.67;;;5.90;99.90;;;;;;20633226;28;20588;-44
2022/01/21 19:46:56;;;;;;;5.63;1.40;;;5.90;99.90;;;;;;20614321;28;20052;-44
2022/01/21 19:57:11;;;;;;;2.08;0.75;;;5.90;99.90;;;;;;20593895;28;20125;-44
2022/01/21 20:17:18;;;;;;;4.20;1.02;;;5.80;99.90;;;;;;20596856;28;20351;-46
2022/01/21 20:27:19;;;;;;;4.10;1.13;;;5.80;99.90;;;;;;20592311;28;20063;-44
2022/01/21 20:37:23;;;;;;;2.10;1.05;;;5.80;99.90;;;;;;20576299;28;20132;-44
2022/01/21 20:47:24;;;;;;;3.00;0.95;;;5.80;99.90;;;;;;20588620;28;20069;-44
2022/01/21 20:57:25;;;;;;;7.63;1.35;;;5.90;99.90;;;;;;20590901;28;20077;-44
2022/01/21 21:07:26;;;;;;;7.80;1.15;;;6.00;99.90;;;;;;20600836;28;20514;-44
2022/01/21 21:27:33;;;;;;;6.23;1.30;;;6.00;99.90;;;;;;20600646;28;20046;-44
2022/01/21 23:00:52;;;;;;;4.95;0.88;;;6.10;99.90;;;;;;20641766;28;20050;-45
2022/01/21 23:10:57;;;;;;;6.80;0.77;;;6.10;99.90;;;;;;20581513;28;20576;-45
2022/01/21 23:21:05;;;;;;;3.65;0.90;;;6.10;99.90;;;;;;20569696;28;20058;-45
2022/01/21 23:31:06;;;;;;;1.65;0.50;;;6.10;99.90;;;;;;20562250;28;20047;-45
2022/01/21 23:41:10;;;;;;;6.80;0.68;;;6.10;99.90;;;;;;20559790;28;20391;-45
2022/01/21 23:51:11;;;;;;;0.77;0.32;;;6.10;99.90;;;;;;20555742;28;20034;-45
